sensor_id;sensor_type;location;lat;lon;timestamp;pressure;altitude;pressure_sealevel;temperature;humidity
55932;BME280;41837;55.700;37.984;2023-07-22T00:01:58;99384.41;;;12.42;100.00
55932;BME280;41837;55.700;37.984;2023-07-22T00:04:25;99387.88;;;12.42;100.00
55932;BME280;41837;55.700;37.984;2023-07-22T00:06:52;99383.13;;;12.33;100.00
55932;BME280;41837;55.700;37.984;2023-07-22T00:09:18;99397.53;;;12.26;100.00
55932;BME280;41837;55.700;37.984;2023-07-22T00:11:44;99394.22;;;12.22;100.00
55932;BME280;41837;55.700;37.984;2023-07-22T00:14:10;99376.91;;;12.04;100.00
55932;BME280;41837;55.700;37.984;2023-07-22T00:16:37;99401.56;;;12.00;100.00
55932;BME280;41837;55.700;37.984;2023-07-22T00:19:04;99406.28;;;11.93;100.00
55932;BME280;41837;55.700;37.984;2023-07-22T00:21:30;99407.53;;;11.86;100.00
55932;BME280;41837;55.700;37.984;2023-07-22T00:23:56;99401.59;;;11.82;100.00
55932;BME280;41837;55.700;37.984;2023-07-22T00:26:22;99408.63;;;11.82;100.00
55932;BME280;41837;55.700;37.984;2023-07-22T00:28:49;99409.09;;;11.72;100.00
55932;BME280;41837;55.700;37.984;2023-07-22T00:31:15;99407.44;;;11.71;100.00
55932;BME280;41837;55.700;37.984;2023-07-22T00:33:41;99405.88;;;11.67;100.00
55932;BME280;41837;55.700;37.984;2023-07-22T00:36:08;99409.00;;;11.58;100.00
55932;BME280;41837;55.700;37.984;2023-07-22T00:38:34;99415.66;;;11.48;100.00
55932;BME280;41837;55.700;37.984;2023-07-22T00:41:00;99416.78;;;11.60;100.00
55932;BME280;41837;55.700;37.984;2023-07-22T00:43:26;99420.25;;;11.60;100.00
55932;BME280;41837;55.700;37.984;2023-07-22T00:45:53;99413.75;;;11.67;100.00
55932;BME280;41837;55.700;37.984;2023-07-22T00:48:19;99418.22;;;11.65;100.00
55932;BME280;41837;55.700;37.984;2023-07-22T00:50:46;99411.19;;;11.66;100.00
55932;BME280;41837;55.700;37.984;2023-07-22T00:53:12;99418.28;;;11.64;100.00
55932;BME280;41837;55.700;37.984;2023-07-22T00:55:39;99415.59;;;11.65;100.00
55932;BME280;41837;55.700;37.984;2023-07-22T00:58:06;99404.22;;;11.66;100.00
55932;BME280;41837;55.700;37.984;2023-07-22T01:00:32;99414.75;;;11.98;100.00
55932;BME280;41837;55.700;37.984;2023-07-22T01:02:59;99419.19;;;12.13;100.00
55932;BME280;41837;55.700;37.984;2023-07-22T01:05:26;99419.19;;;12.13;100.00
55932;BME280;41837;55.700;37.984;2023-07-22T01:07:54;99426.94;;;12.15;100.00
55932;BME280;41837;55.700;37.984;2023-07-22T01:10:21;99418.81;;;12.20;100.00
55932;BME280;41837;55.700;37.984;2023-07-22T01:12:47;99424.31;;;12.15;100.00
55932;BME280;41837;55.700;37.984;2023-07-22T01:15:14;99424.47;;;11.96;100.00
55932;BME280;41837;55.700;37.984;2023-07-22T01:17:40;99428.56;;;11.84;100.00
55932;BME280;41837;55.700;37.984;2023-07-22T01:20:07;99439.94;;;11.67;100.00
55932;BME280;41837;55.700;37.984;2023-07-22T01:22:36;99442.88;;;11.61;100.00
55932;BME280;41837;55.700;37.984;2023-07-22T01:25:03;99436.66;;;11.46;100.00
55932;BME280;41837;55.700;37.984;2023-07-22T01:27:31;99443.59;;;11.47;100.00
55932;BME280;41837;55.700;37.984;2023-07-22T01:29:58;99439.28;;;11.46;100.00
55932;BME280;41837;55.700;37.984;2023-07-22T01:32:24;99447.13;;;11.46;100.00
55932;BME280;41837;55.700;37.984;2023-07-22T01:34:50;99450.28;;;11.53;100.00
55932;BME280;41837;55.700;37.984;2023-07-22T01:37:17;99450.28;;;11.53;100.00
55932;BME280;41837;55.700;37.984;2023-07-22T01:39:44;99458.53;;;11.45;100.00
55932;BME280;41837;55.700;37.984;2023-07-22T01:42:10;99455.78;;;11.82;100.00
55932;BME280;41837;55.700;37.984;2023-07-22T01:44:36;99445.88;;;12.68;100.00
55932;BME280;41837;55.700;37.984;2023-07-22T01:47:03;99430.03;;;13.00;100.00
55932;BME280;41837;55.700;37.984;2023-07-22T01:49:29;99429.78;;;13.35;100.00
55932;BME280;41837;55.700;37.984;2023-07-22T01:51:56;99431.19;;;13.40;100.00
55932;BME280;41837;55.700;37.984;2023-07-22T01:54:22;99429.91;;;13.62;100.00
55932;BME280;41837;55.700;37.984;2023-07-22T01:56:48;99428.88;;;13.79;100.00
55932;BME280;41837;55.700;37.984;2023-07-22T01:59:15;99420.13;;;14.07;100.00
55932;BME280;41837;55.700;37.984;2023-07-22T02:01:41;99408.78;;;14.34;100.00
55932;BME280;41837;55.700;37.984;2023-07-22T02:04:08;99424.75;;;14.72;100.00
55932;BME280;41837;55.700;37.984;2023-07-22T02:06:35;99427.91;;;14.65;100.00
55932;BME280;41837;55.700;37.984;2023-07-22T02:09:01;99416.19;;;14.96;100.00
55932;BME280;41837;55.700;37.984;2023-07-22T02:11:35;99424.59;;;14.88;100.00
55932;BME280;41837;55.700;37.984;2023-07-22T02:14:02;99417.25;;;15.06;100.00
55932;BME280;41837;55.700;37.984;2023-07-22T02:16:34;99421.47;;;15.09;100.00
55932;BME280;41837;55.700;37.984;2023-07-22T02:19:02;99419.38;;;15.27;100.00
55932;BME280;41837;55.700;37.984;2023-07-22T02:21:36;99415.06;;;15.26;100.00
55932;BME280;41837;55.700;37.984;2023-07-22T02:24:02;99415.03;;;16.03;100.00
55932;BME280;41837;55.700;37.984;2023-07-22T02:26:28;99420.22;;;15.66;100.00
55932;BME280;41837;55.700;37.984;2023-07-22T02:28:55;99402.50;;;16.31;100.00
55932;BME280;41837;55.700;37.984;2023-07-22T02:31:21;99403.59;;;16.52;100.00
55932;BME280;41837;55.700;37.984;2023-07-22T02:33:49;99413.41;;;16.50;100.00
55932;BME280;41837;55.700;37.984;2023-07-22T02:36:15;99413.28;;;16.28;100.00
55932;BME280;41837;55.700;37.984;2023-07-22T02:38:41;99403.03;;;16.84;100.00
55932;BME280;41837;55.700;37.984;2023-07-22T02:41:08;99396.56;;;16.88;100.00
55932;BME280;41837;55.700;37.984;2023-07-22T02:43:34;99406.16;;;16.89;99.63
55932;BME280;41837;55.700;37.984;2023-07-22T02:46:02;99407.78;;;17.03;97.43
55932;BME280;41837;55.700;37.984;2023-07-22T02:48:29;99413.59;;;17.31;96.85
55932;BME280;41837;55.700;37.984;2023-07-22T02:51:02;99402.03;;;18.45;90.89
55932;BME280;41837;55.700;37.984;2023-07-22T02:53:28;99404.78;;;18.87;86.79
55932;BME280;41837;55.700;37.984;2023-07-22T02:55:54;99397.38;;;18.70;88.57
55932;BME280;41837;55.700;37.984;2023-07-22T02:58:20;99406.53;;;19.19;84.82
55932;BME280;41837;55.700;37.984;2023-07-22T03:00:47;99408.38;;;19.49;84.79
55932;BME280;41837;55.700;37.984;2023-07-22T03:03:13;99397.25;;;19.77;79.66
55932;BME280;41837;55.700;37.984;2023-07-22T03:05:40;99391.09;;;20.26;78.30
55932;BME280;41837;55.700;37.984;2023-07-22T03:08:06;99389.75;;;21.00;73.53
55932;BME280;41837;55.700;37.984;2023-07-22T03:10:33;99391.72;;;20.98;70.20
55932;BME280;41837;55.700;37.984;2023-07-22T03:12:59;99392.41;;;20.61;71.58
55932;BME280;41837;55.700;37.984;2023-07-22T03:15:30;99391.00;;;21.73;68.67
55932;BME280;41837;55.700;37.984;2023-07-22T03:17:57;99386.44;;;21.46;67.48
55932;BME280;41837;55.700;37.984;2023-07-22T03:20:25;99387.81;;;20.93;69.37
55932;BME280;41837;55.700;37.984;2023-07-22T03:22:52;99389.19;;;20.77;71.09
55932;BME280;41837;55.700;37.984;2023-07-22T03:25:19;99394.25;;;20.80;69.60
55932;BME280;41837;55.700;37.984;2023-07-22T03:27:46;99398.72;;;20.80;68.69
55932;BME280;41837;55.700;37.984;2023-07-22T03:30:15;99395.47;;;21.15;66.06
55932;BME280;41837;55.700;37.984;2023-07-22T03:32:43;99391.84;;;21.64;66.12
55932;BME280;41837;55.700;37.984;2023-07-22T03:35:10;99378.69;;;21.62;65.14
55932;BME280;41837;55.700;37.984;2023-07-22T03:37:38;99392.63;;;21.36;64.70
55932;BME280;41837;55.700;37.984;2023-07-22T03:40:05;99396.97;;;21.85;63.97
55932;BME280;41837;55.700;37.984;2023-07-22T03:42:50;99391.44;;;22.24;61.45
55932;BME280;41837;55.700;37.984;2023-07-22T03:45:18;99399.78;;;21.26;65.71
55932;BME280;41837;55.700;37.984;2023-07-22T03:47:45;99401.09;;;21.69;64.92
55932;BME280;41837;55.700;37.984;2023-07-22T03:50:12;99410.91;;;21.96;65.01
55932;BME280;41837;55.700;37.984;2023-07-22T03:52:39;99408.22;;;22.34;61.99
55932;BME280;41837;55.700;37.984;2023-07-22T03:55:05;99418.09;;;22.42;61.72
55932;BME280;41837;55.700;37.984;2023-07-22T03:57:32;99419.72;;;22.70;62.08
55932;BME280;41837;55.700;37.984;2023-07-22T03:59:58;99410.59;;;23.35;58.63
55932;BME280;41837;55.700;37.984;2023-07-22T04:02:25;99417.50;;;22.84;58.19
55932;BME280;41837;55.700;37.984;2023-07-22T04:04:54;99419.78;;;22.79;59.34
55932;BME280;41837;55.700;37.984;2023-07-22T04:07:21;99418.81;;;22.62;58.49
55932;BME280;41837;55.700;37.984;2023-07-22T04:09:48;99411.72;;;22.70;59.07
55932;BME280;41837;55.700;37.984;2023-07-22T04:12:15;99415.06;;;22.90;59.29
55932;BME280;41837;55.700;37.984;2023-07-22T04:14:42;99420.97;;;23.64;57.24
55932;BME280;41837;55.700;37.984;2023-07-22T04:17:09;99407.81;;;24.06;55.63
55932;BME280;41837;55.700;37.984;2023-07-22T04:19:36;99416.19;;;24.11;55.17
55932;BME280;41837;55.700;37.984;2023-07-22T04:22:02;99412.28;;;23.71;55.38
55932;BME280;41837;55.700;37.984;2023-07-22T04:24:31;99410.84;;;23.76;54.72
55932;BME280;41837;55.700;37.984;2023-07-22T04:27:01;99408.34;;;24.09;55.23
55932;BME280;41837;55.700;37.984;2023-07-22T04:29:29;99418.22;;;23.82;54.82
55932;BME280;41837;55.700;37.984;2023-07-22T04:31:59;99421.16;;;23.71;56.22
55932;BME280;41837;55.700;37.984;2023-07-22T04:34:30;99422.81;;;23.98;54.94
55932;BME280;41837;55.700;37.984;2023-07-22T04:36:57;99416.59;;;24.49;52.85
55932;BME280;41837;55.700;37.984;2023-07-22T04:39:24;99423.84;;;24.06;53.32
55932;BME280;41837;55.700;37.984;2023-07-22T04:41:51;99416.69;;;25.23;51.87
55932;BME280;41837;55.700;37.984;2023-07-22T04:44:18;99422.72;;;25.00;51.07
55932;BME280;41837;55.700;37.984;2023-07-22T04:46:45;99428.34;;;24.64;51.37
55932;BME280;41837;55.700;37.984;2023-07-22T04:49:12;99412.03;;;25.33;50.23
55932;BME280;41837;55.700;37.984;2023-07-22T04:51:39;99415.50;;;24.09;52.67
55932;BME280;41837;55.700;37.984;2023-07-22T04:54:06;99424.03;;;24.63;50.88
55932;BME280;41837;55.700;37.984;2023-07-22T04:56:32;99427.25;;;24.24;50.88
55932;BME280;41837;55.700;37.984;2023-07-22T04:58:58;99411.84;;;24.69;51.11
55932;BME280;41837;55.700;37.984;2023-07-22T05:01:25;99423.78;;;24.40;49.68
55932;BME280;41837;55.700;37.984;2023-07-22T05:03:51;99428.72;;;24.86;49.54
55932;BME280;41837;55.700;37.984;2023-07-22T05:06:21;99437.09;;;25.32;48.74
55932;BME280;41837;55.700;37.984;2023-07-22T05:08:49;99435.09;;;24.85;51.14
55932;BME280;41837;55.700;37.984;2023-07-22T05:11:15;99435.00;;;25.83;48.06
55932;BME280;41837;55.700;37.984;2023-07-22T05:13:41;99433.50;;;25.73;47.95
55932;BME280;41837;55.700;37.984;2023-07-22T05:16:08;99433.72;;;25.13;47.69
55932;BME280;41837;55.700;37.984;2023-07-22T05:18:34;99421.03;;;25.16;47.67
55932;BME280;41837;55.700;37.984;2023-07-22T05:21:01;99421.63;;;25.75;47.57
55932;BME280;41837;55.700;37.984;2023-07-22T05:23:27;99418.56;;;25.86;46.77
55932;BME280;41837;55.700;37.984;2023-07-22T05:25:54;99424.06;;;25.04;48.65
55932;BME280;41837;55.700;37.984;2023-07-22T05:28:21;99428.91;;;25.01;48.54
55932;BME280;41837;55.700;37.984;2023-07-22T05:30:47;99420.38;;;25.94;45.96
55932;BME280;41837;55.700;37.984;2023-07-22T05:33:14;99433.72;;;24.81;48.11
55932;BME280;41837;55.700;37.984;2023-07-22T05:35:41;99424.59;;;26.28;46.89
55932;BME280;41837;55.700;37.984;2023-07-22T05:38:07;99425.72;;;25.46;47.36
55932;BME280;41837;55.700;37.984;2023-07-22T05:40:33;99416.16;;;25.52;48.24
55932;BME280;41837;55.700;37.984;2023-07-22T05:43:00;99414.44;;;26.15;45.73
55932;BME280;41837;55.700;37.984;2023-07-22T05:45:27;99420.50;;;26.17;45.76
55932;BME280;41837;55.700;37.984;2023-07-22T05:47:53;99417.53;;;26.04;45.61
55932;BME280;41837;55.700;37.984;2023-07-22T05:50:20;99415.34;;;25.35;45.63
55932;BME280;41837;55.700;37.984;2023-07-22T05:52:47;99429.00;;;25.73;45.08
55932;BME280;41837;55.700;37.984;2023-07-22T05:55:14;99418.88;;;25.11;45.98
55932;BME280;41837;55.700;37.984;2023-07-22T05:57:41;99417.59;;;25.79;44.95
55932;BME280;41837;55.700;37.984;2023-07-22T06:00:08;99413.19;;;26.34;44.46
55932;BME280;41837;55.700;37.984;2023-07-22T06:02:38;99412.88;;;25.81;43.97
55932;BME280;41837;55.700;37.984;2023-07-22T06:05:05;99411.03;;;25.90;44.36
55932;BME280;41837;55.700;37.984;2023-07-22T06:07:32;99411.50;;;25.46;45.21
55932;BME280;41837;55.700;37.984;2023-07-22T06:09:59;99410.19;;;25.90;43.38
55932;BME280;41837;55.700;37.984;2023-07-22T06:12:25;99402.00;;;25.83;44.53
55932;BME280;41837;55.700;37.984;2023-07-22T06:14:52;99412.56;;;27.02;42.64
55932;BME280;41837;55.700;37.984;2023-07-22T06:17:22;99408.66;;;26.89;42.56
55932;BME280;41837;55.700;37.984;2023-07-22T06:19:49;99414.28;;;26.17;43.37
55932;BME280;41837;55.700;37.984;2023-07-22T06:22:16;99414.63;;;26.45;43.76
55932;BME280;41837;55.700;37.984;2023-07-22T06:24:43;99412.81;;;26.69;43.80
55932;BME280;41837;55.700;37.984;2023-07-22T06:27:09;99412.88;;;27.22;42.78
55932;BME280;41837;55.700;37.984;2023-07-22T06:29:37;99415.81;;;26.11;43.63
55932;BME280;41837;55.700;37.984;2023-07-22T06:32:05;99417.25;;;25.82;44.07
55932;BME280;41837;55.700;37.984;2023-07-22T06:34:32;99415.59;;;26.52;43.56
55932;BME280;41837;55.700;37.984;2023-07-22T06:36:58;99400.84;;;26.79;43.97
55932;BME280;41837;55.700;37.984;2023-07-22T06:39:25;99408.25;;;26.46;45.09
55932;BME280;41837;55.700;37.984;2023-07-22T06:41:52;99407.53;;;26.29;42.86
55932;BME280;41837;55.700;37.984;2023-07-22T06:44:18;99400.91;;;25.61;45.18
55932;BME280;41837;55.700;37.984;2023-07-22T06:46:44;99401.69;;;25.78;44.69
55932;BME280;41837;55.700;37.984;2023-07-22T06:49:11;99404.81;;;25.98;44.95
55932;BME280;41837;55.700;37.984;2023-07-22T06:51:38;99398.94;;;26.02;43.06
55932;BME280;41837;55.700;37.984;2023-07-22T06:54:04;99410.41;;;25.80;44.75
55932;BME280;41837;55.700;37.984;2023-07-22T06:56:32;99407.81;;;24.81;46.17
55932;BME280;41837;55.700;37.984;2023-07-22T06:58:59;99410.59;;;23.61;48.43
55932;BME280;41837;55.700;37.984;2023-07-22T07:01:25;99405.16;;;24.56;48.60
55932;BME280;41837;55.700;37.984;2023-07-22T07:03:51;99408.53;;;24.16;48.99
55932;BME280;41837;55.700;37.984;2023-07-22T07:06:18;99402.16;;;25.09;46.83
55932;BME280;41837;55.700;37.984;2023-07-22T07:08:44;99405.47;;;24.86;48.22
55932;BME280;41837;55.700;37.984;2023-07-22T07:11:11;99407.88;;;24.22;48.73
55932;BME280;41837;55.700;37.984;2023-07-22T07:13:37;99412.81;;;25.25;46.80
55932;BME280;41837;55.700;37.984;2023-07-22T07:16:24;99413.34;;;24.12;48.59
55932;BME280;41837;55.700;37.984;2023-07-22T07:18:52;99416.59;;;24.49;48.12
55932;BME280;41837;55.700;37.984;2023-07-22T07:21:19;99403.09;;;24.50;48.87
55932;BME280;41837;55.700;37.984;2023-07-22T07:23:45;99407.28;;;24.53;48.60
55932;BME280;41837;55.700;37.984;2023-07-22T07:26:12;99410.06;;;24.35;49.34
55932;BME280;41837;55.700;37.984;2023-07-22T07:28:38;99408.47;;;23.39;52.08
55932;BME280;41837;55.700;37.984;2023-07-22T07:31:05;99413.41;;;23.07;52.80
55932;BME280;41837;55.700;37.984;2023-07-22T07:33:32;99410.72;;;23.25;52.42
55932;BME280;41837;55.700;37.984;2023-07-22T07:36:00;99401.41;;;23.30;53.04
55932;BME280;41837;55.700;37.984;2023-07-22T07:38:26;99400.41;;;24.34;51.73
55932;BME280;41837;55.700;37.984;2023-07-22T07:40:57;99409.84;;;25.12;48.97
55932;BME280;41837;55.700;37.984;2023-07-22T07:43:24;99409.81;;;25.20;49.35
55932;BME280;41837;55.700;37.984;2023-07-22T07:45:50;99393.97;;;24.94;48.47
55932;BME280;41837;55.700;37.984;2023-07-22T07:48:36;99406.28;;;24.46;48.42
55932;BME280;41837;55.700;37.984;2023-07-22T07:51:03;99403.84;;;24.93;49.20
55932;BME280;41837;55.700;37.984;2023-07-22T07:53:30;99408.13;;;25.44;47.38
55932;BME280;41837;55.700;37.984;2023-07-22T07:55:56;99404.50;;;25.84;47.94
55932;BME280;41837;55.700;37.984;2023-07-22T07:58:22;99401.81;;;26.01;46.83
55932;BME280;41837;55.700;37.984;2023-07-22T08:00:48;99401.16;;;25.26;48.81
55932;BME280;41837;55.700;37.984;2023-07-22T08:03:15;99405.06;;;24.32;49.72
55932;BME280;41837;55.700;37.984;2023-07-22T08:05:42;99399.75;;;23.89;51.58
55932;BME280;41837;55.700;37.984;2023-07-22T08:08:08;99400.84;;;24.21;50.95
55932;BME280;41837;55.700;37.984;2023-07-22T08:10:36;99398.94;;;25.13;49.78
55932;BME280;41837;55.700;37.984;2023-07-22T08:13:03;99398.91;;;26.88;46.83
55932;BME280;41837;55.700;37.984;2023-07-22T08:15:30;99393.44;;;26.82;46.18
55932;BME280;41837;55.700;37.984;2023-07-22T08:17:56;99401.00;;;26.55;47.05
55932;BME280;41837;55.700;37.984;2023-07-22T08:20:23;99400.94;;;26.86;47.48
55932;BME280;41837;55.700;37.984;2023-07-22T08:22:49;99399.50;;;26.52;45.90
55932;BME280;41837;55.700;37.984;2023-07-22T08:25:16;99402.47;;;26.57;43.76
55932;BME280;41837;55.700;37.984;2023-07-22T08:27:44;99397.28;;;25.93;44.85
55932;BME280;41837;55.700;37.984;2023-07-22T08:30:11;99413.19;;;25.22;45.22
55932;BME280;41837;55.700;37.984;2023-07-22T08:32:37;99407.44;;;24.51;47.10
55932;BME280;41837;55.700;37.984;2023-07-22T08:35:04;99402.91;;;23.93;48.83
55932;BME280;41837;55.700;37.984;2023-07-22T08:37:31;99404.84;;;25.09;48.07
55932;BME280;41837;55.700;37.984;2023-07-22T08:39:57;99406.94;;;24.48;46.39
55932;BME280;41837;55.700;37.984;2023-07-22T08:42:25;99398.59;;;24.51;47.59
55932;BME280;41837;55.700;37.984;2023-07-22T08:44:56;99408.31;;;25.42;46.21
55932;BME280;41837;55.700;37.984;2023-07-22T08:47:25;99400.50;;;24.83;45.84
55932;BME280;41837;55.700;37.984;2023-07-22T08:49:57;99408.56;;;24.24;47.34
55932;BME280;41837;55.700;37.984;2023-07-22T08:52:24;99406.16;;;25.05;45.82
55932;BME280;41837;55.700;37.984;2023-07-22T08:54:51;99399.66;;;24.66;46.92
55932;BME280;41837;55.700;37.984;2023-07-22T08:57:18;99404.13;;;24.66;47.90
55932;BME280;41837;55.700;37.984;2023-07-22T08:59:45;99408.34;;;24.85;46.77
55932;BME280;41837;55.700;37.984;2023-07-22T09:02:12;99400.00;;;25.29;47.76
55932;BME280;41837;55.700;37.984;2023-07-22T09:04:40;99404.00;;;24.16;48.64
55932;BME280;41837;55.700;37.984;2023-07-22T09:07:10;99412.31;;;23.97;49.82
55932;BME280;41837;55.700;37.984;2023-07-22T09:09:37;99399.31;;;24.86;47.45
55932;BME280;41837;55.700;37.984;2023-07-22T09:12:05;99400.31;;;23.75;47.89
55932;BME280;41837;55.700;37.984;2023-07-22T09:14:33;99402.84;;;23.50;49.56
55932;BME280;41837;55.700;37.984;2023-07-22T09:17:00;99402.34;;;23.20;49.40
55932;BME280;41837;55.700;37.984;2023-07-22T09:19:27;99399.81;;;24.65;48.86
55932;BME280;41837;55.700;37.984;2023-07-22T09:21:54;99399.97;;;24.88;47.32
55932;BME280;41837;55.700;37.984;2023-07-22T09:24:25;99402.66;;;25.04;47.30
55932;BME280;41837;55.700;37.984;2023-07-22T09:26:52;99401.63;;;25.13;46.99
55932;BME280;41837;55.700;37.984;2023-07-22T09:29:32;99390.31;;;24.95;45.96
55932;BME280;41837;55.700;37.984;2023-07-22T09:32:00;99394.63;;;24.63;45.67
55932;BME280;41837;55.700;37.984;2023-07-22T09:34:27;99395.13;;;24.67;46.40
55932;BME280;41837;55.700;37.984;2023-07-22T09:36:55;99397.97;;;24.65;47.07
55932;BME280;41837;55.700;37.984;2023-07-22T09:39:23;99398.00;;;24.82;46.79
55932;BME280;41837;55.700;37.984;2023-07-22T09:41:50;99399.31;;;25.27;46.46
55932;BME280;41837;55.700;37.984;2023-07-22T09:44:19;99397.19;;;25.78;44.88
55932;BME280;41837;55.700;37.984;2023-07-22T09:46:49;99398.28;;;25.03;45.77
55932;BME280;41837;55.700;37.984;2023-07-22T09:49:17;99402.69;;;24.20;46.33
55932;BME280;41837;55.700;37.984;2023-07-22T09:51:44;99403.53;;;23.26;47.19
55932;BME280;41837;55.700;37.984;2023-07-22T09:54:11;99407.44;;;22.96;48.86
55932;BME280;41837;55.700;37.984;2023-07-22T09:56:48;99407.16;;;22.99;49.47
55932;BME280;41837;55.700;37.984;2023-07-22T09:59:17;99408.66;;;23.45;49.04
55932;BME280;41837;55.700;37.984;2023-07-22T10:01:44;99419.13;;;22.95;49.27
55932;BME280;41837;55.700;37.984;2023-07-22T10:04:15;99417.47;;;23.38;48.53
55932;BME280;41837;55.700;37.984;2023-07-22T10:06:43;99417.69;;;23.79;48.02
55932;BME280;41837;55.700;37.984;2023-07-22T10:09:10;99410.78;;;24.53;47.21
55932;BME280;41837;55.700;37.984;2023-07-22T10:11:39;99415.38;;;25.02;47.86
55932;BME280;41837;55.700;37.984;2023-07-22T10:14:05;99410.34;;;24.99;45.00
55932;BME280;41837;55.700;37.984;2023-07-22T10:16:33;99415.03;;;24.89;45.06
55932;BME280;41837;55.700;37.984;2023-07-22T10:19:01;99400.81;;;25.05;44.52
55932;BME280;41837;55.700;37.984;2023-07-22T10:21:28;99411.34;;;24.98;46.29
55932;BME280;41837;55.700;37.984;2023-07-22T10:23:55;99417.41;;;24.25;46.09
55932;BME280;41837;55.700;37.984;2023-07-22T10:26:22;99419.78;;;23.67;47.57
55932;BME280;41837;55.700;37.984;2023-07-22T10:28:49;99420.66;;;24.02;47.63
55932;BME280;41837;55.700;37.984;2023-07-22T10:31:16;99416.44;;;24.42;48.75
55932;BME280;41837;55.700;37.984;2023-07-22T10:33:46;99418.28;;;24.42;46.42
55932;BME280;41837;55.700;37.984;2023-07-22T10:36:14;99416.16;;;25.44;46.33
55932;BME280;41837;55.700;37.984;2023-07-22T10:38:43;99411.00;;;24.93;45.92
55932;BME280;41837;55.700;37.984;2023-07-22T10:41:14;99426.03;;;24.18;45.70
55932;BME280;41837;55.700;37.984;2023-07-22T10:43:54;99413.84;;;24.67;44.71
55932;BME280;41837;55.700;37.984;2023-07-22T10:46:38;99410.00;;;24.86;45.30
55932;BME280;41837;55.700;37.984;2023-07-22T10:49:13;99421.94;;;24.49;45.42
55932;BME280;41837;55.700;37.984;2023-07-22T10:51:40;99413.47;;;24.02;45.48
55932;BME280;41837;55.700;37.984;2023-07-22T10:54:15;99426.91;;;23.58;46.99
55932;BME280;41837;55.700;37.984;2023-07-22T10:56:44;99424.00;;;23.70;47.89
55932;BME280;41837;55.700;37.984;2023-07-22T10:59:12;99424.09;;;23.34;45.20
55932;BME280;41837;55.700;37.984;2023-07-22T11:01:39;99427.34;;;22.83;46.13
55932;BME280;41837;55.700;37.984;2023-07-22T11:04:12;99417.66;;;23.00;46.53
55932;BME280;41837;55.700;37.984;2023-07-22T11:12:16;99426.59;;;23.61;46.74
55932;BME280;41837;55.700;37.984;2023-07-22T11:15:02;99423.97;;;23.43;46.29
55932;BME280;41837;55.700;37.984;2023-07-22T11:17:33;99427.03;;;22.86;47.34
55932;BME280;41837;55.700;37.984;2023-07-22T11:20:01;99416.06;;;22.71;47.81
55932;BME280;41837;55.700;37.984;2023-07-22T11:22:32;99417.69;;;22.64;47.60
55932;BME280;41837;55.700;37.984;2023-07-22T11:24:59;99413.16;;;22.29;47.65
55932;BME280;41837;55.700;37.984;2023-07-22T11:27:28;99435.94;;;22.59;47.02
55932;BME280;41837;55.700;37.984;2023-07-22T11:29:58;99436.94;;;22.76;47.39
55932;BME280;41837;55.700;37.984;2023-07-22T11:32:24;99434.19;;;23.22;47.00
55932;BME280;41837;55.700;37.984;2023-07-22T11:34:51;99431.69;;;23.81;46.02
55932;BME280;41837;55.700;37.984;2023-07-22T11:37:22;99437.38;;;24.55;45.12
55932;BME280;41837;55.700;37.984;2023-07-22T11:39:48;99432.16;;;24.53;44.55
55932;BME280;41837;55.700;37.984;2023-07-22T11:42:15;99439.59;;;24.84;44.60
55932;BME280;41837;55.700;37.984;2023-07-22T11:44:41;99431.41;;;24.27;44.47
55932;BME280;41837;55.700;37.984;2023-07-22T11:47:08;99446.66;;;23.92;45.65
55932;BME280;41837;55.700;37.984;2023-07-22T11:49:47;99437.47;;;23.42;44.43
55932;BME280;41837;55.700;37.984;2023-07-22T11:52:17;99446.59;;;22.95;45.57
55932;BME280;41837;55.700;37.984;2023-07-22T11:54:45;99451.00;;;22.68;46.28
55932;BME280;41837;55.700;37.984;2023-07-22T11:57:22;99445.00;;;22.66;47.32
55932;BME280;41837;55.700;37.984;2023-07-22T11:59:52;99437.47;;;22.80;47.04
55932;BME280;41837;55.700;37.984;2023-07-22T12:02:24;99445.94;;;22.93;47.74
55932;BME280;41837;55.700;37.984;2023-07-22T12:04:53;99452.91;;;22.58;46.30
55932;BME280;41837;55.700;37.984;2023-07-22T12:07:31;99445.13;;;22.47;47.45
55932;BME280;41837;55.700;37.984;2023-07-22T12:09:59;99441.41;;;22.94;46.55
55932;BME280;41837;55.700;37.984;2023-07-22T12:12:34;99435.56;;;22.90;48.05
55932;BME280;41837;55.700;37.984;2023-07-22T12:15:15;99444.69;;;23.23;47.76
55932;BME280;41837;55.700;37.984;2023-07-22T12:17:53;99437.84;;;23.21;46.00
55932;BME280;41837;55.700;37.984;2023-07-22T12:20:33;99431.97;;;22.99;46.67
55932;BME280;41837;55.700;37.984;2023-07-22T12:23:02;99432.44;;;22.95;46.46
55932;BME280;41837;55.700;37.984;2023-07-22T12:25:28;99427.34;;;22.83;46.67
55932;BME280;41837;55.700;37.984;2023-07-22T12:27:55;99407.84;;;22.65;46.09
55932;BME280;41837;55.700;37.984;2023-07-22T12:30:22;99407.38;;;22.87;47.21
55932;BME280;41837;55.700;37.984;2023-07-22T12:32:50;99418.78;;;23.34;47.11
55932;BME280;41837;55.700;37.984;2023-07-22T12:35:16;99415.75;;;23.89;45.46
55932;BME280;41837;55.700;37.984;2023-07-22T12:37:43;99413.41;;;24.29;45.09
55932;BME280;41837;55.700;37.984;2023-07-22T12:40:10;99416.09;;;24.45;46.45
55932;BME280;41837;55.700;37.984;2023-07-22T12:42:38;99419.63;;;24.37;44.25
55932;BME280;41837;55.700;37.984;2023-07-22T12:45:05;99407.56;;;23.82;44.86
55932;BME280;41837;55.700;37.984;2023-07-22T12:47:33;99409.44;;;23.90;44.81
55932;BME280;41837;55.700;37.984;2023-07-22T12:50:00;99393.78;;;23.95;44.32
55932;BME280;41837;55.700;37.984;2023-07-22T12:52:27;99407.13;;;23.95;42.98
55932;BME280;41837;55.700;37.984;2023-07-22T12:54:53;99405.94;;;23.98;43.29
55932;BME280;41837;55.700;37.984;2023-07-22T12:57:20;99398.06;;;23.27;43.62